Mariupol, Ukraine
Current Conditions -  °F | °C
As of 7:30 AM on Sunday 23 Nov 2014 (Local Time) from URRR Reporting Station
Clear Clear  
Wind Chill:   Ceiling: Unl
Heat Index: 18°   Visibility: 5mi
Dew Point: 12°   Wind: 11mph
Humidity: 79%   Direction: 50°NE
Pressure: 30.3"   Gusts: NA
Location:  47.1°N, 37.55°E
Report Text: URRR 230430Z 05005MPS P8000 NSC M08/M11 Q1026 04CLRD70 NOSIG
Loading
Personal Weather Stations






























Interactive Weather Map New forecast layout! Learn more

10-Day Weather Forecast

Advertisements
Track Severe Weather on mobile